Time;durP1;ratioP1;P1;durP2;ratioP2;P2;SDS_P1;SDS_P2;PMS_P1;PMS_P2;Temp;Humidity;BMP_temperature;BMP_pressure;BME280_temperature;BME280_humidity;BME280_pressure;Samples;Min_cycle;Max_cycle;Signal;HPM_P1;HPM_P2
2021/06/27 00:02:23;;;;;;;8.07;7.25;;;;;;;;;;5017196;28;20410;-76
2021/06/27 00:04:49;;;;;;;6.85;6.13;;;;;;;;;;5001178;28;20184;-76
2021/06/27 00:07:15;;;;;;;7.88;7.13;;;;;;;;;;5014542;28;20190;-75
2021/06/27 00:09:41;;;;;;;7.20;6.50;;;;;;;;;;5000049;28;20184;-75
2021/06/27 00:12:08;;;;;;;7.20;6.50;;;;;;;;;;5000675;28;20440;-76
2021/06/27 00:14:34;;;;;;;7.97;7.18;;;;;;;;;;5015792;28;20186;-75
2021/06/27 00:17:00;;;;;;;8.25;7.43;;;;;;;;;;5002710;28;20192;-75
2021/06/27 00:19:26;;;;;;;8.93;8.05;;;;;;;;;;5001390;28;20216;-75
2021/06/27 00:21:52;;;;;;;8.33;7.63;;;;;;;;;;5017902;28;20189;-75
2021/06/27 00:24:18;;;;;;;10.10;8.00;;;;;;;;;;5018327;28;20406;-75
2021/06/27 00:26:46;;;;;;;7.80;7.00;;;;;;;;;;5013593;28;20869;-75
2021/06/27 00:29:12;;;;;;;7.70;6.80;;;;;;;;;;5021258;28;20431;-75
2021/06/27 00:31:38;;;;;;;9.38;7.90;;;;;;;;;;5004009;28;20692;-75
2021/06/27 00:34:04;;;;;;;8.07;7.25;;;;;;;;;;5017826;28;20183;-75
2021/06/27 00:36:30;;;;;;;8.60;7.78;;;;;;;;;;5001864;28;20181;-76
2021/06/27 00:38:56;;;;;;;14.03;8.80;;;;;;;;;;5017628;28;20672;-76
2021/06/27 00:41:22;;;;;;;8.30;7.60;;;;;;;;;;5004005;28;20406;-76
2021/06/27 00:43:50;;;;;;;9.65;8.07;;;;;;;;;;5004526;28;20449;-78
2021/06/27 00:46:16;;;;;;;8.07;7.13;;;;;;;;;;5003560;28;20184;-80
2021/06/27 00:48:42;;;;;;;8.67;7.73;;;;;;;;;;5002614;28;20250;-81
2021/06/27 00:51:08;;;;;;;8.82;8.00;;;;;;;;;;5018913;28;20480;-83
2021/06/27 00:53:34;;;;;;;9.13;8.15;;;;;;;;;;5003804;28;20204;-81
2021/06/27 00:56:00;;;;;;;8.95;8.05;;;;;;;;;;5005972;28;20202;-82
2021/06/27 00:58:28;;;;;;;11.13;8.47;;;;;;;;;;5001336;28;20192;-83
2021/06/27 01:00:55;;;;;;;12.13;7.80;;;;;;;;;;4998169;28;20471;-82
2021/06/27 01:03:21;;;;;;;9.68;8.77;;;;;;;;;;5002045;28;20243;-83
2021/06/27 01:05:47;;;;;;;8.90;8.10;;;;;;;;;;5016510;28;20212;-83
2021/06/27 01:08:13;;;;;;;9.35;8.45;;;;;;;;;;5004722;28;20258;-83
2021/06/27 01:10:39;;;;;;;9.95;8.85;;;;;;;;;;5001572;28;20190;-83
2021/06/27 01:13:05;;;;;;;10.07;9.07;;;;;;;;;;5017068;28;20188;-84
2021/06/27 01:15:31;;;;;;;11.75;9.48;;;;;;;;;;5002395;28;20214;-84
2021/06/27 01:17:58;;;;;;;8.77;7.93;;;;;;;;;;5016461;28;20228;-83
2021/06/27 01:20:28;;;;;;;11.02;9.25;;;;;;;;;;5019286;28;20230;-83
2021/06/27 01:22:55;;;;;;;9.95;8.98;;;;;;;;;;5002572;28;20171;-82
2021/06/27 01:25:25;;;;;;;9.40;8.50;;;;;;;;;;5001968;28;20182;-83
2021/06/27 01:27:52;;;;;;;10.75;9.65;;;;;;;;;;5001856;28;20533;-83
2021/06/27 01:30:19;;;;;;;10.30;9.30;;;;;;;;;;5013217;28;20637;-83
2021/06/27 01:32:46;;;;;;;10.52;9.50;;;;;;;;;;5015580;28;20191;-84
2021/06/27 01:35:15;;;;;;;11.25;10.05;;;;;;;;;;5020379;28;20175;-83
2021/06/27 01:37:41;;;;;;;9.80;8.77;;;;;;;;;;5002558;28;20182;-83
2021/06/27 01:40:08;;;;;;;10.25;9.15;;;;;;;;;;4999555;28;20245;-86
2021/06/27 01:42:34;;;;;;;11.63;9.73;;;;;;;;;;4999869;28;20187;-86
2021/06/27 01:45:09;;;;;;;15.23;10.02;;;;;;;;;;5016913;28;20188;-85
2021/06/27 01:47:35;;;;;;;10.15;9.23;;;;;;;;;;5002852;28;20672;-85
2021/06/27 01:50:01;;;;;;;12.80;9.90;;;;;;;;;;5003436;28;20205;-86
2021/06/27 01:52:27;;;;;;;9.80;8.90;;;;;;;;;;5016677;28;20449;-85
2021/06/27 01:54:53;;;;;;;9.95;9.05;;;;;;;;;;5003707;28;20195;-85
2021/06/27 01:57:21;;;;;;;11.17;9.77;;;;;;;;;;5001484;28;20226;-85
2021/06/27 01:59:48;;;;;;;10.43;9.32;;;;;;;;;;5015360;28;20467;-85
2021/06/27 02:02:14;;;;;;;11.20;9.20;;;;;;;;;;5005101;28;20696;-85
2021/06/27 02:04:40;;;;;;;11.85;9.93;;;;;;;;;;5001670;28;20207;-86
2021/06/27 02:07:06;;;;;;;10.17;9.17;;;;;;;;;;5016612;28;20194;-85
2021/06/27 02:09:32;;;;;;;9.90;9.00;;;;;;;;;;5016211;28;20445;-84
2021/06/27 02:11:58;;;;;;;10.65;9.55;;;;;;;;;;5016682;28;20180;-85
2021/06/27 02:14:24;;;;;;;9.93;8.68;;;;;;;;;;5018913;28;20206;-84
2021/06/27 02:16:51;;;;;;;11.07;9.53;;;;;;;;;;5001275;28;20783;-85
2021/06/27 02:19:17;;;;;;;10.60;9.70;;;;;;;;;;5001046;28;20438;-85
2021/06/27 02:21:43;;;;;;;12.60;9.93;;;;;;;;;;5000301;28;20617;-84
2021/06/27 02:24:09;;;;;;;10.47;9.47;;;;;;;;;;5016226;28;20187;-84
2021/06/27 02:26:35;;;;;;;11.48;10.45;;;;;;;;;;5012111;28;20443;-85
2021/06/27 02:29:02;;;;;;;11.18;9.75;;;;;;;;;;5000644;28;20191;-86
2021/06/27 02:31:29;;;;;;;11.15;10.00;;;;;;;;;;5000383;28;20179;-85
2021/06/27 02:33:55;;;;;;;12.00;10.35;;;;;;;;;;5001488;28;20175;-84
2021/06/27 02:36:21;;;;;;;11.30;9.70;;;;;;;;;;5001304;28;20235;-86
2021/06/27 02:38:47;;;;;;;9.90;8.90;;;;;;;;;;5015293;28;20246;-84
2021/06/27 02:41:13;;;;;;;9.52;8.63;;;;;;;;;;5019207;28;20540;-85
2021/06/27 02:43:40;;;;;;;10.35;9.25;;;;;;;;;;5002459;28;20179;-85
2021/06/27 02:46:06;;;;;;;12.65;10.48;;;;;;;;;;4996671;28;20187;-84
2021/06/27 02:48:32;;;;;;;11.40;9.70;;;;;;;;;;4999758;28;20181;-85
2021/06/27 02:50:59;;;;;;;10.07;9.07;;;;;;;;;;5016096;28;20668;-83
2021/06/27 02:53:25;;;;;;;9.80;8.80;;;;;;;;;;5003348;28;20513;-83
2021/06/27 02:56:07;;;;;;;10.80;9.70;;;;;;;;;;5002544;28;20233;-84
2021/06/27 02:58:33;;;;;;;9.50;8.70;;;;;;;;;;4998802;28;20446;-84
2021/06/27 03:00:59;;;;;;;10.02;9.02;;;;;;;;;;5000456;28;20207;-84
2021/06/27 03:03:25;;;;;;;10.20;9.20;;;;;;;;;;4999955;28;20247;-84
2021/06/27 03:05:51;;;;;;;9.90;9.10;;;;;;;;;;5001160;28;20435;-84
2021/06/27 03:08:17;;;;;;;10.77;9.03;;;;;;;;;;5003154;28;20426;-83
2021/06/27 03:10:43;;;;;;;10.33;8.70;;;;;;;;;;5000282;28;20940;-83
2021/06/27 03:13:09;;;;;;;10.90;8.97;;;;;;;;;;5000322;28;20445;-83
2021/06/27 03:15:35;;;;;;;9.57;8.67;;;;;;;;;;5000568;28;20501;-83
2021/06/27 03:18:01;;;;;;;9.40;8.50;;;;;;;;;;5015389;28;20451;-83
2021/06/27 03:20:27;;;;;;;11.35;8.73;;;;;;;;;;5017655;28;20485;-83
2021/06/27 03:22:53;;;;;;;10.60;9.60;;;;;;;;;;5002247;28;20187;-83
2021/06/27 03:25:25;;;;;;;9.77;8.77;;;;;;;;;;5015666;28;20452;-83
2021/06/27 03:27:51;;;;;;;9.70;8.70;;;;;;;;;;4999265;28;20682;-83
2021/06/27 03:30:17;;;;;;;11.27;10.20;;;;;;;;;;5000198;28;20191;-83
2021/06/27 03:32:44;;;;;;;10.45;9.10;;;;;;;;;;5014987;28;20447;-83
2021/06/27 03:35:10;;;;;;;11.50;8.98;;;;;;;;;;5004347;28;20178;-83
2021/06/27 03:37:39;;;;;;;12.30;10.30;;;;;;;;;;4999200;28;20193;-83
2021/06/27 03:40:05;;;;;;;10.88;8.82;;;;;;;;;;5000853;28;20203;-82
2021/06/27 03:42:32;;;;;;;11.25;10.10;;;;;;;;;;4998888;28;20238;-83
2021/06/27 03:44:58;;;;;;;10.20;8.93;;;;;;;;;;5015496;28;20176;-83
2021/06/27 03:47:25;;;;;;;11.90;9.35;;;;;;;;;;5017743;28;20183;-82
2021/06/27 03:49:51;;;;;;;10.32;9.18;;;;;;;;;;4999867;28;20175;-82
2021/06/27 03:52:17;;;;;;;11.32;9.52;;;;;;;;;;4998469;28;20191;-83
2021/06/27 03:54:43;;;;;;;13.95;10.00;;;;;;;;;;5003202;28;20199;-83
2021/06/27 03:57:09;;;;;;;9.97;9.03;;;;;;;;;;5002345;28;20194;-82
2021/06/27 03:59:35;;;;;;;10.57;9.47;;;;;;;;;;5004427;28;20466;-82
2021/06/27 04:02:01;;;;;;;10.40;8.90;;;;;;;;;;5005611;28;20437;-82
2021/06/27 04:04:27;;;;;;;11.02;9.93;;;;;;;;;;5003814;28;20426;-84
2021/06/27 04:06:53;;;;;;;10.80;9.57;;;;;;;;;;5002813;28;20214;-86
2021/06/27 04:09:19;;;;;;;12.57;10.30;;;;;;;;;;5003054;28;20438;-85
2021/06/27 04:11:45;;;;;;;11.67;10.47;;;;;;;;;;5003661;28;20497;-85
2021/06/27 04:14:11;;;;;;;11.77;10.30;;;;;;;;;;5007884;28;20403;-85
2021/06/27 04:16:37;;;;;;;11.73;9.37;;;;;;;;;;5002634;28;20461;-85
2021/06/27 04:19:03;;;;;;;11.48;10.20;;;;;;;;;;5003587;28;20444;-84
2021/06/27 04:21:29;;;;;;;13.38;10.70;;;;;;;;;;5003395;28;20566;-84
2021/06/27 04:23:55;;;;;;;11.03;9.87;;;;;;;;;;5018619;28;20230;-83
2021/06/27 04:26:21;;;;;;;10.98;9.88;;;;;;;;;;5021056;28;20433;-84
2021/06/27 04:28:48;;;;;;;10.48;9.38;;;;;;;;;;5004599;28;20179;-84
2021/06/27 04:31:14;;;;;;;11.88;9.88;;;;;;;;;;5001446;28;20298;-84
2021/06/27 04:33:40;;;;;;;9.97;8.90;;;;;;;;;;5018852;28;20246;-83
2021/06/27 04:36:06;;;;;;;15.83;10.93;;;;;;;;;;5018537;28;20872;-83
2021/06/27 04:38:32;;;;;;;13.98;9.70;;;;;;;;;;5019101;28;20501;-83
2021/06/27 04:40:58;;;;;;;11.45;10.10;;;;;;;;;;5004078;28;20481;-83
2021/06/27 04:43:24;;;;;;;11.07;9.98;;;;;;;;;;5001997;28;20187;-84
2021/06/27 04:45:50;;;;;;;11.65;9.73;;;;;;;;;;5001897;28;20213;-83
2021/06/27 04:48:16;;;;;;;14.70;9.85;;;;;;;;;;5003409;28;20179;-83
2021/06/27 04:50:42;;;;;;;14.75;9.98;;;;;;;;;;5002924;28;20187;-83
2021/06/27 04:53:09;;;;;;;10.95;9.85;;;;;;;;;;5006506;28;20187;-83
2021/06/27 04:55:35;;;;;;;10.73;9.15;;;;;;;;;;5019287;28;20187;-82
2021/06/27 04:58:01;;;;;;;11.00;9.77;;;;;;;;;;5002766;28;20675;-83
2021/06/27 05:00:29;;;;;;;10.97;9.83;;;;;;;;;;5000345;28;20582;-83
2021/06/27 05:02:55;;;;;;;12.43;10.20;;;;;;;;;;5004899;28;20439;-83
2021/06/27 05:05:21;;;;;;;12.27;9.90;;;;;;;;;;5004829;28;20189;-82
2021/06/27 05:07:47;;;;;;;13.43;9.73;;;;;;;;;;5004045;28;20426;-83
2021/06/27 05:10:13;;;;;;;10.90;9.80;;;;;;;;;;5002335;28;20457;-84
2021/06/27 05:12:39;;;;;;;12.20;10.25;;;;;;;;;;5001470;28;20259;-83
2021/06/27 05:15:05;;;;;;;11.03;9.83;;;;;;;;;;5002910;28;20273;-82
2021/06/27 05:17:31;;;;;;;11.00;9.60;;;;;;;;;;5004092;28;20634;-83
2021/06/27 05:19:57;;;;;;;13.90;10.00;;;;;;;;;;5003143;28;20241;-83
2021/06/27 05:22:24;;;;;;;11.00;9.80;;;;;;;;;;5000582;28;20417;-82
2021/06/27 05:24:50;;;;;;;12.27;9.90;;;;;;;;;;5002100;28;20438;-82
2021/06/27 05:27:16;;;;;;;11.27;10.17;;;;;;;;;;5017427;28;20194;-83
2021/06/27 05:29:42;;;;;;;11.52;10.30;;;;;;;;;;5002424;28;20450;-83
2021/06/27 05:32:08;;;;;;;16.75;10.88;;;;;;;;;;5017452;28;20651;-83
2021/06/27 05:34:34;;;;;;;14.33;11.47;;;;;;;;;;4997868;28;20207;-83
2021/06/27 05:37:00;;;;;;;11.75;10.43;;;;;;;;;;5012114;28;20438;-83
2021/06/27 05:39:26;;;;;;;11.55;10.27;;;;;;;;;;5016767;28;20246;-82
2021/06/27 05:41:52;;;;;;;11.02;9.48;;;;;;;;;;5017432;28;20180;-82
2021/06/27 05:44:21;;;;;;;10.75;9.75;;;;;;;;;;5019877;28;20185;-82
2021/06/27 05:46:47;;;;;;;12.25;10.57;;;;;;;;;;5005207;28;20241;-82
2021/06/27 05:49:13;;;;;;;12.35;10.75;;;;;;;;;;5002185;28;20203;-83
2021/06/27 05:51:41;;;;;;;11.23;10.13;;;;;;;;;;5018246;28;20194;-82
2021/06/27 05:54:07;;;;;;;13.30;11.00;;;;;;;;;;5016533;28;20175;-82
2021/06/27 05:56:34;;;;;;;14.77;10.10;;;;;;;;;;4997918;28;20182;-82
2021/06/27 05:59:00;;;;;;;15.20;11.50;;;;;;;;;;5003470;28;20230;-81
2021/06/27 06:01:26;;;;;;;14.50;10.50;;;;;;;;;;5000924;28;20207;-83
2021/06/27 06:03:52;;;;;;;14.87;11.60;;;;;;;;;;5016910;28;20446;-82
2021/06/27 06:06:18;;;;;;;12.67;10.10;;;;;;;;;;5001416;28;20444;-83
2021/06/27 06:08:45;;;;;;;11.97;10.77;;;;;;;;;;5015598;28;20451;-83
2021/06/27 06:11:12;;;;;;;11.85;10.02;;;;;;;;;;5020132;28;20521;-83
2021/06/27 06:13:38;;;;;;;13.25;11.43;;;;;;;;;;4998993;28;20180;-82
2021/06/27 06:16:05;;;;;;;18.92;10.98;;;;;;;;;;4999425;28;20220;-82
2021/06/27 06:18:31;;;;;;;13.48;11.07;;;;;;;;;;4996533;28;20187;-82
2021/06/27 06:20:57;;;;;;;13.18;10.45;;;;;;;;;;5013237;28;20569;-81
2021/06/27 06:23:23;;;;;;;12.00;10.80;;;;;;;;;;5003706;28;20195;-81
2021/06/27 06:25:49;;;;;;;11.93;9.80;;;;;;;;;;5001263;28;20181;-82
2021/06/27 06:28:15;;;;;;;12.20;10.90;;;;;;;;;;5002872;28;20943;-81
2021/06/27 06:30:41;;;;;;;12.50;10.37;;;;;;;;;;5001039;28;20413;-82
2021/06/27 06:33:13;;;;;;;12.63;11.43;;;;;;;;;;5016094;28;20450;-82
2021/06/27 06:35:40;;;;;;;13.52;12.23;;;;;;;;;;5012563;28;20471;-80
2021/06/27 06:38:06;;;;;;;12.90;11.32;;;;;;;;;;5002573;28;20194;-81
2021/06/27 06:40:32;;;;;;;13.52;12.13;;;;;;;;;;5000704;28;20267;-80
2021/06/27 06:42:59;;;;;;;12.63;11.40;;;;;;;;;;5000542;28;20195;-80
2021/06/27 06:45:25;;;;;;;13.40;12.00;;;;;;;;;;4997868;28;20261;-80
2021/06/27 06:47:51;;;;;;;13.32;12.02;;;;;;;;;;5017366;28;20180;-80
2021/06/27 06:50:17;;;;;;;13.20;11.90;;;;;;;;;;5018196;28;20190;-80
2021/06/27 06:52:43;;;;;;;13.70;11.73;;;;;;;;;;5002282;28;20438;-80
2021/06/27 06:55:09;;;;;;;14.97;11.70;;;;;;;;;;5000420;28;20184;-80
2021/06/27 06:57:35;;;;;;;12.27;11.07;;;;;;;;;;5016921;28;20436;-80
2021/06/27 07:00:01;;;;;;;12.93;11.73;;;;;;;;;;5002432;28;20238;-80
2021/06/27 07:02:27;;;;;;;14.00;11.73;;;;;;;;;;5002378;28;20401;-80
2021/06/27 07:04:53;;;;;;;15.38;11.13;;;;;;;;;;5003589;28;20389;-79
2021/06/27 07:07:19;;;;;;;14.93;12.53;;;;;;;;;;4998880;28;20184;-79
2021/06/27 07:09:45;;;;;;;13.65;11.60;;;;;;;;;;5016427;28;20421;-78
2021/06/27 07:12:11;;;;;;;12.80;11.60;;;;;;;;;;5001351;28;20295;-78
2021/06/27 07:14:37;;;;;;;13.25;12.00;;;;;;;;;;5000117;28;20499;-79
2021/06/27 07:17:03;;;;;;;13.00;11.70;;;;;;;;;;5001844;28;20690;-79
2021/06/27 07:19:29;;;;;;;13.02;11.18;;;;;;;;;;5016621;28;20206;-78
2021/06/27 07:21:55;;;;;;;14.63;11.87;;;;;;;;;;5016363;28;20536;-79
2021/06/27 07:24:21;;;;;;;13.00;11.60;;;;;;;;;;5000718;28;20440;-79
2021/06/27 07:26:48;;;;;;;13.73;11.87;;;;;;;;;;5017034;28;20443;-79
2021/06/27 07:29:14;;;;;;;12.35;11.07;;;;;;;;;;5006126;28;20415;-79
2021/06/27 07:31:40;;;;;;;13.40;11.00;;;;;;;;;;5005616;28;20278;-78
2021/06/27 07:34:06;;;;;;;12.38;10.90;;;;;;;;;;5006080;28;20414;-79
2021/06/27 07:36:32;;;;;;;13.17;11.87;;;;;;;;;;5003170;28;20183;-79
2021/06/27 07:38:58;;;;;;;15.20;11.23;;;;;;;;;;5006183;28;20448;-78
2021/06/27 07:41:24;;;;;;;12.90;11.70;;;;;;;;;;5021525;28;20276;-78
2021/06/27 07:43:51;;;;;;;12.40;11.17;;;;;;;;;;5002913;28;20414;-77
2021/06/27 07:46:17;;;;;;;15.40;12.15;;;;;;;;;;5001401;28;20469;-78
2021/06/27 07:48:43;;;;;;;18.08;13.77;;;;;;;;;;5004699;28;20197;-78
2021/06/27 07:51:09;;;;;;;13.33;12.03;;;;;;;;;;5018076;28;20227;-78
2021/06/27 07:53:36;;;;;;;13.85;12.45;;;;;;;;;;5005234;28;20447;-78
2021/06/27 07:56:02;;;;;;;12.73;11.52;;;;;;;;;;5021469;28;20247;-78
2021/06/27 07:58:28;;;;;;;12.95;11.70;;;;;;;;;;5002691;28;20717;-77
2021/06/27 08:00:54;;;;;;;14.00;11.83;;;;;;;;;;5003111;28;20241;-77
2021/06/27 08:03:20;;;;;;;12.80;11.15;;;;;;;;;;5019003;28;20442;-77
2021/06/27 08:05:46;;;;;;;12.95;11.35;;;;;;;;;;5019286;28;20192;-77
2021/06/27 08:08:13;;;;;;;13.57;11.13;;;;;;;;;;5020023;28;20186;-78
2021/06/27 08:10:39;;;;;;;13.93;12.10;;;;;;;;;;5022048;28;20434;-77
2021/06/27 08:13:05;;;;;;;11.88;10.77;;;;;;;;;;5019676;28;20216;-77
2021/06/27 08:15:32;;;;;;;13.33;11.93;;;;;;;;;;5016083;28;20218;-77
2021/06/27 08:17:58;;;;;;;12.35;11.13;;;;;;;;;;5017549;28;20473;-78
2021/06/27 08:20:24;;;;;;;11.73;10.60;;;;;;;;;;5020657;28;20201;-77
2021/06/27 08:22:51;;;;;;;12.32;11.00;;;;;;;;;;5003874;28;20182;-78
2021/06/27 08:25:17;;;;;;;14.57;11.18;;;;;;;;;;5018017;28;20213;-78
2021/06/27 08:27:43;;;;;;;13.98;11.80;;;;;;;;;;5001802;28;20189;-78
2021/06/27 08:30:10;;;;;;;14.05;12.65;;;;;;;;;;5003168;28;20218;-78
2021/06/27 08:32:37;;;;;;;12.93;11.25;;;;;;;;;;5002557;28;20191;-78
2021/06/27 08:35:03;;;;;;;15.68;12.07;;;;;;;;;;5003322;28;20197;-79
2021/06/27 08:37:29;;;;;;;12.63;11.15;;;;;;;;;;5014701;28;20193;-77
2021/06/27 08:39:55;;;;;;;11.93;10.77;;;;;;;;;;5016245;28;20210;-77
2021/06/27 08:42:21;;;;;;;13.27;11.97;;;;;;;;;;5000018;28;20437;-77
2021/06/27 08:44:51;;;;;;;12.30;11.10;;;;;;;;;;5002995;28;20519;-77
2021/06/27 08:47:18;;;;;;;12.70;11.50;;;;;;;;;;5020710;28;20219;-78
2021/06/27 08:49:51;;;;;;;13.98;12.05;;;;;;;;;;5002918;28;20221;-77
2021/06/27 08:52:18;;;;;;;12.15;10.95;;;;;;;;;;5002670;28;20186;-78
2021/06/27 08:54:44;;;;;;;13.88;11.85;;;;;;;;;;5003111;28;20187;-77
2021/06/27 08:57:11;;;;;;;14.75;11.02;;;;;;;;;;5003212;28;20544;-78
2021/06/27 08:59:37;;;;;;;12.52;10.30;;;;;;;;;;5018169;28;20210;-78
2021/06/27 09:02:03;;;;;;;12.98;11.68;;;;;;;;;;5004221;28;20182;-78
2021/06/27 09:04:31;;;;;;;12.40;11.10;;;;;;;;;;5017897;28;20242;-78
2021/06/27 09:07:17;;;;;;;12.15;10.75;;;;;;;;;;5001564;28;20249;-78
2021/06/27 09:09:43;;;;;;;11.05;9.95;;;;;;;;;;5001315;28;20282;-78
2021/06/27 09:12:10;;;;;;;14.47;12.27;;;;;;;;;;5002561;28;20201;-78
2021/06/27 09:14:40;;;;;;;12.55;11.05;;;;;;;;;;5017920;28;20414;-78
2021/06/27 09:17:15;;;;;;;13.57;10.93;;;;;;;;;;5006205;28;20214;-78
2021/06/27 09:19:53;;;;;;;11.70;10.63;;;;;;;;;;5003831;28;20218;-77
2021/06/27 09:22:20;;;;;;;13.32;11.25;;;;;;;;;;5000758;28;20186;-78
2021/06/27 09:24:47;;;;;;;11.45;10.35;;;;;;;;;;5001472;28;20191;-77
2021/06/27 09:27:21;;;;;;;11.75;10.52;;;;;;;;;;5002480;28;20593;-77
2021/06/27 09:29:47;;;;;;;11.88;10.68;;;;;;;;;;5012686;28;20678;-77
2021/06/27 09:32:21;;;;;;;15.20;10.75;;;;;;;;;;5020515;28;20195;-77
2021/06/27 09:34:47;;;;;;;12.80;11.60;;;;;;;;;;5004129;28;20188;-77
2021/06/27 09:37:14;;;;;;;14.10;11.77;;;;;;;;;;5002148;28;20189;-77
2021/06/27 09:39:57;;;;;;;12.85;11.63;;;;;;;;;;5002317;28;20622;-78
2021/06/27 09:42:23;;;;;;;13.23;11.85;;;;;;;;;;4991706;28;20179;-78
2021/06/27 09:44:59;;;;;;;13.48;12.00;;;;;;;;;;4991881;28;20184;-79
2021/06/27 09:47:25;;;;;;;13.43;12.10;;;;;;;;;;5004712;28;20224;-80
2021/06/27 09:49:51;;;;;;;13.88;11.32;;;;;;;;;;4998386;28;20616;-80
2021/06/27 09:52:33;;;;;;;12.85;11.55;;;;;;;;;;5013180;28;20200;-79
2021/06/27 09:55:10;;;;;;;13.25;11.95;;;;;;;;;;5000471;28;20217;-79
2021/06/27 09:57:37;;;;;;;12.93;10.23;;;;;;;;;;5000393;28;20320;-79
2021/06/27 10:00:04;;;;;;;12.23;10.23;;;;;;;;;;5000376;28;23122;-79
2021/06/27 10:02:30;;;;;;;10.50;9.43;;;;;;;;;;5003280;28;20177;-80
2021/06/27 10:04:56;;;;;;;12.30;9.70;;;;;;;;;;5004448;28;20183;-79
2021/06/27 10:07:36;;;;;;;10.48;9.38;;;;;;;;;;5000087;28;20425;-79
2021/06/27 10:10:15;;;;;;;10.43;9.40;;;;;;;;;;5016639;28;20189;-79
2021/06/27 10:12:41;;;;;;;9.77;8.80;;;;;;;;;;4999711;28;20228;-79
2021/06/27 10:15:09;;;;;;;10.93;9.80;;;;;;;;;;5001930;28;20228;-80
2021/06/27 10:17:36;;;;;;;11.35;8.95;;;;;;;;;;5002744;28;20448;-80
2021/06/27 10:20:02;;;;;;;13.10;9.60;;;;;;;;;;5003043;28;20203;-81
2021/06/27 10:22:31;;;;;;;12.80;9.68;;;;;;;;;;5001119;28;20701;-82
2021/06/27 10:24:57;;;;;;;14.73;10.10;;;;;;;;;;5016390;28;20179;-82
2021/06/27 10:27:24;;;;;;;10.80;9.68;;;;;;;;;;4999693;28;20235;-81
2021/06/27 10:29:50;;;;;;;11.63;10.40;;;;;;;;;;5016044;28;20193;-81
2021/06/27 10:32:19;;;;;;;10.27;9.27;;;;;;;;;;5019357;28;20188;-82
2021/06/27 10:34:45;;;;;;;12.65;8.75;;;;;;;;;;5002458;28;20234;-83
2021/06/27 10:37:13;;;;;;;16.45;9.38;;;;;;;;;;5001480;28;20201;-82
2021/06/27 10:39:55;;;;;;;12.13;9.65;;;;;;;;;;4995378;28;20657;-81
2021/06/27 10:42:41;;;;;;;14.52;9.60;;;;;;;;;;5003236;28;20178;-81
2021/06/27 10:45:07;;;;;;;15.00;10.80;;;;;;;;;;5000260;28;20184;-81
2021/06/27 10:47:34;;;;;;;14.38;9.95;;;;;;;;;;5000166;28;20208;-80
2021/06/27 10:50:03;;;;;;;10.00;9.05;;;;;;;;;;5001796;28;20193;-81
2021/06/27 10:52:29;;;;;;;12.93;9.40;;;;;;;;;;5000260;28;20212;-80
2021/06/27 10:55:15;;;;;;;14.23;10.00;;;;;;;;;;4998931;28;20201;-80
2021/06/27 10:57:58;;;;;;;12.10;10.05;;;;;;;;;;5000598;28;20188;-80
2021/06/27 11:00:25;;;;;;;11.07;9.95;;;;;;;;;;4999743;28;20207;-81
2021/06/27 11:02:51;;;;;;;10.65;9.45;;;;;;;;;;5002635;28;20182;-80
2021/06/27 11:05:39;;;;;;;13.40;9.60;;;;;;;;;;5015727;28;20661;-81
2021/06/27 11:08:06;;;;;;;12.93;9.30;;;;;;;;;;5001958;28;20259;-81
2021/06/27 11:10:33;;;;;;;13.85;12.45;;;;;;;;;;4999639;28;20181;-80
2021/06/27 11:12:59;;;;;;;14.30;11.18;;;;;;;;;;4998651;28;20292;-80
2021/06/27 11:15:39;;;;;;;15.48;10.90;;;;;;;;;;5001518;28;20222;-80
2021/06/27 11:18:09;;;;;;;16.55;11.90;;;;;;;;;;5015866;28;20195;-79
2021/06/27 11:20:55;;;;;;;12.70;11.10;;;;;;;;;;5017569;28;20672;-79
2021/06/27 11:23:40;;;;;;;14.20;11.00;;;;;;;;;;5008751;28;20190;-79
2021/06/27 11:26:06;;;;;;;12.90;9.93;;;;;;;;;;4999949;28;20207;-80
2021/06/27 11:28:36;;;;;;;13.32;8.90;;;;;;;;;;5000293;28;20197;-79
2021/06/27 11:31:20;;;;;;;10.75;9.65;;;;;;;;;;5000503;28;20669;-79
2021/06/27 11:33:46;;;;;;;9.80;8.13;;;;;;;;;;5000062;28;20211;-79
2021/06/27 11:36:24;;;;;;;9.00;8.10;;;;;;;;;;4978338;28;20256;-80
2021/06/27 11:38:51;;;;;;;13.65;7.85;;;;;;;;;;4995700;28;20193;-79
2021/06/27 11:41:25;;;;;;;10.93;8.57;;;;;;;;;;4999724;28;20670;-79
2021/06/27 11:43:52;;;;;;;10.60;8.93;;;;;;;;;;5000513;28;20179;-79
2021/06/27 11:46:37;;;;;;;12.80;10.15;;;;;;;;;;4984972;28;20177;-79
2021/06/27 11:49:05;;;;;;;9.98;9.00;;;;;;;;;;4999905;28;20257;-79
2021/06/27 11:51:35;;;;;;;13.02;9.68;;;;;;;;;;4981644;28;20194;-79
2021/06/27 11:54:01;;;;;;;11.43;8.20;;;;;;;;;;4981210;28;20226;-79
2021/06/27 11:56:27;;;;;;;9.23;8.13;;;;;;;;;;4982591;28;20842;-80
2021/06/27 11:59:11;;;;;;;9.83;8.13;;;;;;;;;;4999421;28;20479;-79
2021/06/27 12:01:37;;;;;;;8.32;7.53;;;;;;;;;;5000871;28;20531;-79
2021/06/27 12:04:03;;;;;;;11.30;7.47;;;;;;;;;;5015597;28;20198;-79
2021/06/27 12:06:36;;;;;;;10.27;7.83;;;;;;;;;;5012801;28;20434;-79
2021/06/27 12:09:03;;;;;;;7.90;7.20;;;;;;;;;;4997181;28;20643;-79
2021/06/27 12:11:29;;;;;;;7.95;7.15;;;;;;;;;;4998278;28;20611;-79
2021/06/27 12:13:56;;;;;;;12.20;7.57;;;;;;;;;;5001009;28;20257;-79
2021/06/27 12:16:30;;;;;;;10.30;8.20;;;;;;;;;;5001946;28;20467;-79
2021/06/27 12:18:58;;;;;;;15.43;10.87;;;;;;;;;;5001610;28;20241;-78
2021/06/27 12:21:25;;;;;;;16.55;15.02;;;;;;;;;;5003179;28;20504;-78
2021/06/27 12:23:56;;;;;;;13.43;12.10;;;;;;;;;;5017768;28;20201;-79
2021/06/27 12:26:22;;;;;;;11.05;10.07;;;;;;;;;;5020757;28;20513;-79
2021/06/27 12:28:49;;;;;;;9.90;9.00;;;;;;;;;;5004439;28;20185;-79
2021/06/27 12:31:19;;;;;;;8.90;7.97;;;;;;;;;;5000918;28;20429;-79
2021/06/27 12:33:50;;;;;;;7.70;6.90;;;;;;;;;;5005207;28;20434;-79
2021/06/27 12:36:30;;;;;;;7.17;6.57;;;;;;;;;;5018586;28;20492;-79
2021/06/27 12:38:57;;;;;;;7.72;7.03;;;;;;;;;;5014607;28;20450;-79
2021/06/27 12:41:25;;;;;;;6.27;5.77;;;;;;;;;;5020671;28;20203;-79
2021/06/27 12:43:55;;;;;;;7.22;6.50;;;;;;;;;;5001563;28;20434;-79
2021/06/27 12:46:28;;;;;;;10.20;9.07;;;;;;;;;;4999292;28;20180;-79
2021/06/27 12:49:00;;;;;;;8.70;7.80;;;;;;;;;;5018362;28;20187;-80
2021/06/27 12:51:33;;;;;;;7.50;6.43;;;;;;;;;;5015681;28;20254;-80
2021/06/27 12:54:00;;;;;;;7.35;6.65;;;;;;;;;;5002649;28;20452;-79
2021/06/27 12:56:38;;;;;;;8.13;5.70;;;;;;;;;;5018049;28;20183;-80
2021/06/27 12:59:06;;;;;;;5.78;5.28;;;;;;;;;;5004310;28;21000;-80
2021/06/27 13:01:52;;;;;;;6.68;6.05;;;;;;;;;;5017601;28;20294;-80
2021/06/27 13:04:48;;;;;;;6.20;5.60;;;;;;;;;;5016720;28;20179;-79
2021/06/27 13:07:15;;;;;;;7.38;5.90;;;;;;;;;;4998559;28;20450;-81
2021/06/27 13:09:57;;;;;;;6.15;5.55;;;;;;;;;;5003014;28;20198;-81
2021/06/27 13:12:23;;;;;;;5.43;4.97;;;;;;;;;;5003066;28;20199;-81
2021/06/27 13:14:51;;;;;;;4.67;4.27;;;;;;;;;;5002277;28;20191;-80
2021/06/27 13:17:21;;;;;;;5.60;5.20;;;;;;;;;;5003139;28;20537;-80
2021/06/27 13:20:11;;;;;;;5.03;4.43;;;;;;;;;;5002638;28;20485;-81
2021/06/27 13:22:38;;;;;;;4.80;4.40;;;;;;;;;;5002052;28;20430;-80
2021/06/27 13:25:06;;;;;;;5.20;4.77;;;;;;;;;;4984468;28;20449;-80
2021/06/27 13:27:32;;;;;;;4.30;4.00;;;;;;;;;;5008783;28;20581;-81
2021/06/27 13:30:01;;;;;;;4.83;4.47;;;;;;;;;;5002944;28;20486;-81
2021/06/27 13:32:27;;;;;;;4.43;4.13;;;;;;;;;;4988451;28;20451;-80
2021/06/27 13:34:53;;;;;;;3.57;3.37;;;;;;;;;;5003216;28;20463;-81
2021/06/27 13:37:19;;;;;;;3.43;3.20;;;;;;;;;;4999764;28;20445;-80
2021/06/27 13:39:46;;;;;;;5.03;4.63;;;;;;;;;;4995913;28;20533;-81
2021/06/27 13:42:12;;;;;;;4.40;4.10;;;;;;;;;;5010339;28;20489;-81
2021/06/27 13:44:57;;;;;;;4.07;3.77;;;;;;;;;;5000074;28;20439;-81
2021/06/27 13:47:23;;;;;;;4.10;3.70;;;;;;;;;;5017176;28;20398;-81
2021/06/27 13:49:49;;;;;;;4.40;4.10;;;;;;;;;;5001773;28;20439;-81
2021/06/27 13:52:15;;;;;;;5.53;4.43;;;;;;;;;;5003579;28;20470;-82
2021/06/27 13:54:41;;;;;;;5.43;5.03;;;;;;;;;;5000205;28;20430;-81
2021/06/27 13:57:07;;;;;;;5.33;4.83;;;;;;;;;;5003703;28;20500;-81
2021/06/27 13:59:33;;;;;;;5.60;5.10;;;;;;;;;;5018329;28;20449;-81
2021/06/27 14:01:59;;;;;;;4.77;4.30;;;;;;;;;;5004093;28;20435;-81
2021/06/27 14:04:25;;;;;;;5.83;5.23;;;;;;;;;;5016351;28;20434;-81
2021/06/27 14:06:51;;;;;;;5.27;4.83;;;;;;;;;;5000236;28;20438;-81
2021/06/27 14:09:19;;;;;;;5.77;5.27;;;;;;;;;;5016127;28;20450;-80
2021/06/27 14:11:45;;;;;;;4.50;4.10;;;;;;;;;;4997014;28;20446;-81
2021/06/27 14:14:11;;;;;;;4.83;4.43;;;;;;;;;;5020695;28;20430;-81
2021/06/27 14:16:38;;;;;;;4.43;4.03;;;;;;;;;;5000973;28;20464;-80
2021/06/27 14:19:03;;;;;;;4.90;3.97;;;;;;;;;;5002838;28;20458;-80
2021/06/27 14:21:30;;;;;;;6.00;4.83;;;;;;;;;;5000207;28;20519;-80
2021/06/27 14:23:57;;;;;;;3.83;3.53;;;;;;;;;;5016113;28;20422;-81
2021/06/27 14:26:23;;;;;;;4.40;4.00;;;;;;;;;;5007833;28;20465;-81
2021/06/27 14:28:49;;;;;;;4.70;3.97;;;;;;;;;;5001699;28;20415;-80
2021/06/27 14:31:15;;;;;;;5.90;4.50;;;;;;;;;;4999828;28;20417;-80
2021/06/27 14:33:41;;;;;;;5.20;4.67;;;;;;;;;;4999638;28;20420;-80